createdAt,value
2019-04-03T00:01:13.756Z,9.90
2019-04-03T00:03:45.058Z,9.90
2019-04-03T00:06:15.667Z,9.80
2019-04-03T00:08:45.916Z,9.70
2019-04-03T00:11:16.218Z,9.70
2019-04-03T00:13:46.539Z,9.70
2019-04-03T00:16:16.517Z,9.70
2019-04-03T00:18:48.024Z,9.80
2019-04-03T00:21:19.616Z,9.80
2019-04-03T00:23:52.190Z,9.80
2019-04-03T00:26:22.754Z,9.90
2019-04-03T00:28:52.992Z,9.90
2019-04-03T00:31:23.737Z,9.90
2019-04-03T00:33:53.942Z,9.90
2019-04-03T00:36:23.899Z,9.90
2019-04-03T00:38:54.271Z,9.80
2019-04-03T00:41:25.120Z,9.90
2019-04-03T00:43:55.837Z,9.80
2019-04-03T00:46:25.983Z,9.80
2019-04-03T00:48:56.301Z,9.70
2019-04-03T00:51:27.499Z,9.70
2019-04-03T00:53:58.214Z,9.60
2019-04-03T00:56:28.434Z,9.60
2019-04-03T00:58:58.471Z,9.50
2019-04-03T01:01:28.573Z,9.50
2019-04-03T01:03:59.160Z,9.40
2019-04-03T01:06:29.239Z,9.30
2019-04-03T01:09:00.085Z,9.30
2019-04-03T01:11:31.108Z,9.20
2019-04-03T01:14:01.683Z,9.10
2019-04-03T01:16:33.522Z,9.00
2019-04-03T01:19:05.174Z,9.00
2019-04-03T01:21:37.389Z,8.90
2019-04-03T01:24:08.320Z,8.90
2019-04-03T01:26:40.483Z,8.80
2019-04-03T01:29:10.647Z,8.80
2019-04-03T01:31:42.820Z,8.80
2019-04-03T01:34:13.768Z,8.90
2019-04-03T01:36:43.694Z,8.90
2019-04-03T01:39:14.244Z,8.90
2019-04-03T01:41:44.117Z,8.90
2019-04-03T01:44:14.359Z,8.90
2019-04-03T01:46:45.425Z,8.90
2019-04-03T01:49:16.349Z,9.10
2019-04-03T01:51:46.569Z,9.10
2019-04-03T01:54:18.014Z,9.20
2019-04-03T01:56:48.189Z,9.30
2019-04-03T01:59:18.379Z,9.40
2019-04-03T02:01:48.630Z,9.50
2019-04-03T02:04:19.242Z,9.60
2019-04-03T02:06:49.740Z,9.60
2019-04-03T02:09:19.690Z,9.60
2019-04-03T02:11:49.827Z,9.60
2019-04-03T02:14:21.607Z,9.60
2019-04-03T02:16:53.464Z,9.60
2019-04-03T02:19:25.725Z,9.70
2019-04-03T02:21:57.955Z,9.70
2019-04-03T02:24:27.357Z,9.70
2019-04-03T02:26:57.269Z,9.70
2019-04-03T02:29:27.260Z,9.70
2019-04-03T02:31:57.567Z,9.80
2019-04-03T02:34:27.869Z,9.80
2019-04-03T02:36:58.986Z,9.90
2019-04-03T02:39:29.069Z,10.00
2019-04-03T02:41:59.500Z,10.00
2019-04-03T02:44:29.377Z,10.00
2019-04-03T02:47:00.965Z,10.00
2019-04-03T02:49:31.624Z,10.00
2019-04-03T02:52:01.956Z,10.00
2019-04-03T02:54:35.766Z,9.90
2019-04-03T02:57:05.768Z,9.90
2019-04-03T02:59:36.301Z,9.90
2019-04-03T03:02:07.127Z,9.90
2019-04-03T03:04:37.558Z,9.90
2019-04-03T03:07:08.485Z,9.80
2019-04-03T03:09:40.636Z,9.80
2019-04-03T03:12:11.312Z,9.70
2019-04-03T03:14:41.758Z,9.60
2019-04-03T03:17:12.766Z,9.50
2019-04-03T03:19:43.336Z,9.50
2019-04-03T03:22:16.925Z,9.50
2019-04-03T03:24:46.180Z,9.50
2019-04-03T03:27:16.246Z,9.60
2019-04-03T03:29:46.293Z,9.60
2019-04-03T03:32:22.370Z,9.60
2019-04-03T03:35:04.939Z,9.60
2019-04-03T03:37:22.564Z,9.70
2019-04-03T03:39:52.682Z,9.70
2019-04-03T03:42:24.011Z,9.70
2019-04-03T03:44:55.923Z,9.70
2019-04-03T03:47:27.178Z,9.70
2019-04-03T03:49:57.772Z,9.70
2019-04-03T03:52:28.237Z,9.70
2019-04-03T03:54:59.507Z,9.70
2019-04-03T03:57:29.905Z,9.60
2019-04-03T04:00:00.355Z,9.60
2019-04-03T04:02:30.635Z,9.60
2019-04-03T04:05:01.607Z,9.60
2019-04-03T04:07:35.873Z,9.50
2019-04-03T04:10:05.827Z,9.50
2019-04-03T04:12:39.778Z,9.50
2019-04-03T04:15:08.619Z,9.50
2019-04-03T04:17:39.188Z,9.60
2019-04-03T04:20:11.113Z,9.50
2019-04-03T04:22:41.763Z,9.50
2019-04-03T04:25:11.971Z,9.50
2019-04-03T04:27:42.392Z,9.60
2019-04-03T04:30:16.307Z,9.60
2019-04-03T04:32:46.929Z,9.60
2019-04-03T04:35:17.485Z,9.60
2019-04-03T04:37:49.247Z,9.60
2019-04-03T04:40:19.624Z,9.60
2019-04-03T04:42:49.646Z,9.50
2019-04-03T04:45:20.625Z,9.50
2019-04-03T04:47:50.653Z,9.40
2019-04-03T04:50:25.690Z,9.30
2019-04-03T04:52:56.697Z,9.30
2019-04-03T04:55:30.562Z,9.20
2019-04-03T04:58:00.043Z,9.20
2019-04-03T05:00:30.546Z,9.20
2019-04-03T05:03:21.134Z,9.20
2019-04-03T05:05:51.502Z,9.30
2019-04-03T05:08:21.648Z,9.30
2019-04-03T05:10:51.574Z,9.40
2019-04-03T05:13:22.030Z,9.40
2019-04-03T05:15:54.154Z,9.40
2019-04-03T05:18:25.070Z,9.50
2019-04-03T05:20:56.695Z,9.50
2019-04-03T05:23:26.739Z,9.50
2019-04-03T05:25:56.982Z,9.60
2019-04-03T05:28:27.453Z,9.70
2019-04-03T05:30:57.723Z,9.70
2019-04-03T05:33:27.937Z,9.70
2019-04-03T05:35:58.344Z,9.80
2019-04-03T05:38:28.839Z,9.80
2019-04-03T05:40:58.851Z,9.90
2019-04-03T05:43:30.377Z,9.90
2019-04-03T05:46:01.186Z,9.90
2019-04-03T05:48:31.397Z,10.00
2019-04-03T05:51:01.695Z,10.00
2019-04-03T05:53:31.801Z,10.00
2019-04-03T05:56:01.920Z,10.00
2019-04-03T05:58:31.960Z,10.10
2019-04-03T06:01:04.873Z,10.10
2019-04-03T06:03:42.097Z,10.10
2019-04-03T06:06:06.166Z,10.20
2019-04-03T06:08:36.443Z,10.20
2019-04-03T06:11:09.263Z,10.30
2019-04-03T06:13:40.161Z,10.30
2019-04-03T06:16:10.477Z,10.40
2019-04-03T06:18:40.534Z,10.40
2019-04-03T06:21:10.589Z,10.50
2019-04-03T06:23:40.759Z,10.60
2019-04-03T06:26:11.649Z,10.70
2019-04-03T06:28:42.794Z,10.80
2019-04-03T06:31:19.671Z,10.80
2019-04-03T06:33:51.113Z,10.80
2019-04-03T06:36:21.510Z,10.80
2019-04-03T06:38:51.437Z,10.80
2019-04-03T06:41:22.055Z,10.90
2019-04-03T06:43:54.287Z,10.90
2019-04-03T06:46:24.470Z,10.80
2019-04-03T06:48:55.648Z,10.80
2019-04-03T06:51:25.925Z,10.70
2019-04-03T06:53:58.796Z,10.70
2019-04-03T06:56:28.021Z,10.70
2019-04-03T06:58:58.205Z,10.70
2019-04-03T07:01:28.845Z,10.70
2019-04-03T07:03:59.342Z,10.80
2019-04-03T07:06:29.812Z,10.80
2019-04-03T07:08:59.831Z,10.90
2019-04-03T07:11:30.221Z,10.90
2019-04-03T07:14:00.521Z,10.90
2019-04-03T07:16:30.902Z,11.00
2019-04-03T07:19:00.956Z,11.10
2019-04-03T07:21:31.424Z,11.20
2019-04-03T07:24:01.409Z,11.30
2019-04-03T07:26:31.771Z,11.40
2019-04-03T07:29:02.047Z,11.60
2019-04-03T07:31:32.685Z,11.80
2019-04-03T07:34:03.489Z,12.00
2019-04-03T07:36:34.325Z,12.30
2019-04-03T07:39:10.413Z,12.50
2019-04-03T07:41:41.283Z,12.80
2019-04-03T07:44:12.094Z,13.00
2019-04-03T07:46:42.412Z,12.90
2019-04-03T07:49:13.852Z,13.00
2019-04-03T07:51:44.525Z,13.00
2019-04-03T07:54:14.887Z,13.20
2019-04-03T07:56:44.855Z,13.40
2019-04-03T07:59:14.991Z,13.30
2019-04-03T08:01:45.520Z,13.30
2019-04-03T08:04:16.695Z,13.40
2019-04-03T08:06:47.562Z,13.30
2019-04-03T08:09:17.625Z,13.10
2019-04-03T08:11:48.246Z,13.00
2019-04-03T08:14:19.754Z,12.90
2019-04-03T08:16:50.836Z,12.80
2019-04-03T08:19:22.244Z,12.70
2019-04-03T08:21:52.508Z,12.70
2019-04-03T08:24:22.603Z,12.70
2019-04-03T08:26:52.839Z,12.90
2019-04-03T08:29:23.428Z,13.00
2019-04-03T08:31:53.675Z,13.10
2019-04-03T08:34:24.133Z,13.30
2019-04-03T08:36:54.779Z,13.40
2019-04-03T08:39:25.184Z,13.60
2019-04-03T08:41:56.099Z,13.90
2019-04-03T08:44:26.935Z,14.20
2019-04-03T08:46:57.622Z,14.30
2019-04-03T08:49:27.712Z,14.30
2019-04-03T08:51:58.227Z,14.20
2019-04-03T08:54:28.602Z,14.00
2019-04-03T08:56:59.643Z,13.80
2019-04-03T08:59:30.102Z,13.90
2019-04-03T09:02:00.388Z,14.10
2019-04-03T09:04:32.646Z,14.10
2019-04-03T09:07:03.059Z,13.90
2019-04-03T09:09:34.974Z,13.70
2019-04-03T09:12:05.636Z,13.50
2019-04-03T09:14:36.637Z,13.40
2019-04-03T09:17:06.937Z,13.30
2019-04-03T09:19:41.090Z,13.10
2019-04-03T09:22:10.748Z,13.00
2019-04-03T09:24:40.794Z,13.00
2019-04-03T09:27:10.878Z,12.90
2019-04-03T09:29:40.788Z,12.80
2019-04-03T09:32:10.942Z,12.80
2019-04-03T09:34:40.960Z,12.80
2019-04-03T09:37:10.873Z,12.80
2019-04-03T09:39:40.946Z,12.70
2019-04-03T09:42:10.930Z,12.50
2019-04-03T09:44:41.206Z,12.50
2019-04-03T09:47:11.135Z,12.40
2019-04-03T09:50:00.289Z,12.30
2019-04-03T09:52:39.793Z,12.20
2019-04-03T09:55:02.127Z,12.20
2019-04-03T09:57:32.493Z,12.00
2019-04-03T10:00:02.814Z,11.70
2019-04-03T10:02:46.963Z,11.20
2019-04-03T10:05:17.380Z,10.70
2019-04-03T10:07:49.352Z,10.30
2019-04-03T10:10:20.838Z,10.00
2019-04-03T10:12:53.596Z,9.80
2019-04-03T10:15:23.320Z,9.50
2019-04-03T10:17:53.396Z,9.30
2019-04-03T10:20:31.290Z,9.10
2019-04-03T10:23:01.517Z,8.90
2019-04-03T10:25:31.609Z,8.70
2019-04-03T10:28:01.705Z,8.50
2019-04-03T10:30:31.856Z,8.40
2019-04-03T10:33:02.035Z,8.40
2019-04-03T10:35:32.322Z,8.30
2019-04-03T10:38:02.686Z,8.30
2019-04-03T10:40:33.113Z,8.30
2019-04-03T10:43:06.003Z,8.20
2019-04-03T10:45:35.857Z,8.30
2019-04-03T10:48:06.093Z,8.30
2019-04-03T10:50:38.207Z,8.30
2019-04-03T10:53:09.128Z,8.20
2019-04-03T10:55:39.278Z,8.30
2019-04-03T10:58:09.378Z,8.30
2019-04-03T11:00:39.748Z,8.30
2019-04-03T11:03:10.606Z,8.30
2019-04-03T11:05:41.528Z,8.40
2019-04-03T11:08:13.834Z,8.50
2019-04-03T11:10:44.400Z,8.70
2019-04-03T11:13:15.988Z,8.90
2019-04-03T11:15:46.889Z,9.10
2019-04-03T11:18:18.901Z,9.00
2019-04-03T11:20:48.886Z,8.90
2019-04-03T11:23:21.621Z,8.80
2019-04-03T11:25:50.731Z,8.70
2019-04-03T11:28:20.806Z,8.60
2019-04-03T11:30:53.006Z,8.50
2019-04-03T11:33:23.491Z,8.50
2019-04-03T11:35:54.419Z,8.60
2019-04-03T11:38:28.216Z,8.70
2019-04-03T11:40:57.233Z,8.90
2019-04-03T11:43:30.984Z,9.10
2019-04-03T11:46:01.498Z,9.40
2019-04-03T11:48:31.823Z,9.70
2019-04-03T11:51:02.143Z,9.80
2019-04-03T11:53:34.590Z,9.70
2019-04-03T11:56:04.662Z,9.60
2019-04-03T11:58:34.608Z,9.50
2019-04-03T12:01:05.804Z,9.40
2019-04-03T12:03:35.978Z,9.40
2019-04-03T12:06:06.185Z,9.30
2019-04-03T12:08:38.189Z,9.20
2019-04-03T12:11:08.521Z,9.10
2019-04-03T12:13:40.825Z,9.00
2019-04-03T12:16:11.159Z,9.00
2019-04-03T12:18:41.150Z,9.00
2019-04-03T12:21:14.102Z,9.00
2019-04-03T12:23:43.654Z,9.00
2019-04-03T12:26:13.657Z,9.10
2019-04-03T12:28:44.199Z,9.30
2019-04-03T12:31:14.608Z,9.50
2019-04-03T12:33:53.918Z,9.70
2019-04-03T12:36:16.422Z,9.80
2019-04-03T12:38:46.678Z,10.00
2019-04-03T12:41:17.811Z,10.60
2019-04-03T12:43:50.017Z,11.00
2019-04-03T12:46:36.430Z,11.20
2019-04-03T12:49:08.005Z,11.40
2019-04-03T12:51:38.118Z,11.80
2019-04-03T12:54:08.351Z,12.00
2019-04-03T12:56:39.169Z,12.00
2019-04-03T12:59:09.654Z,11.80
2019-04-03T13:01:40.290Z,11.40
2019-04-03T13:04:10.443Z,11.30
2019-04-03T13:06:41.890Z,11.30
2019-04-03T13:09:14.292Z,11.10
2019-04-03T13:11:44.339Z,10.70
2019-04-03T13:14:23.758Z,10.70
2019-04-03T13:16:47.443Z,10.90
2019-04-03T13:19:18.898Z,11.30
2019-04-03T13:21:49.117Z,11.50
2019-04-03T13:24:19.180Z,11.40
2019-04-03T13:26:49.607Z,11.50
2019-04-03T13:29:21.657Z,11.60
2019-04-03T13:31:51.715Z,11.90
2019-04-03T13:34:22.415Z,12.50
2019-04-03T13:36:53.019Z,12.70
2019-04-03T13:39:23.198Z,12.60
2019-04-03T13:41:53.049Z,12.50
2019-04-03T13:44:25.973Z,12.20
2019-04-03T13:46:55.446Z,11.90
2019-04-03T13:49:25.663Z,11.70
2019-04-03T13:52:01.745Z,11.90
2019-04-03T13:54:27.932Z,12.40
2019-04-03T13:56:57.992Z,12.90
2019-04-03T13:59:28.405Z,13.30
2019-04-03T14:01:58.587Z,13.40
2019-04-03T14:04:28.442Z,13.60
2019-04-03T14:06:58.447Z,13.70
2019-04-03T14:09:29.097Z,13.60
2019-04-03T14:12:00.592Z,13.50
2019-04-03T14:14:31.088Z,13.60
2019-04-03T14:17:05.490Z,13.60
2019-04-03T14:19:43.155Z,13.80
2019-04-03T14:22:06.399Z,14.00
2019-04-03T14:24:43.706Z,14.20
2019-04-03T14:27:19.399Z,14.40
2019-04-03T14:29:39.731Z,14.40
2019-04-03T14:32:10.118Z,14.20
2019-04-03T14:34:40.781Z,14.10
2019-04-03T14:37:10.975Z,13.90
2019-04-03T14:39:41.817Z,13.60
2019-04-03T14:42:12.979Z,13.30
2019-04-03T14:44:45.672Z,13.10
2019-04-03T14:47:15.187Z,13.10
2019-04-03T14:49:45.248Z,13.40
2019-04-03T14:52:16.906Z,13.70
2019-04-03T14:54:47.671Z,14.00
2019-04-03T14:57:22.271Z,14.10
2019-04-03T14:59:50.161Z,14.30
2019-04-03T15:02:21.406Z,14.40
2019-04-03T15:04:52.258Z,14.30
2019-04-03T15:07:22.196Z,14.00
2019-04-03T15:09:52.655Z,13.80
2019-04-03T15:12:22.699Z,13.40
2019-04-03T15:14:55.230Z,13.00
2019-04-03T15:17:26.311Z,12.70
2019-04-03T15:19:57.227Z,12.30
2019-04-03T15:22:27.452Z,12.00
2019-04-03T15:24:58.391Z,11.70
2019-04-03T15:27:29.160Z,11.50
2019-04-03T15:30:00.028Z,11.40
2019-04-03T15:32:30.875Z,11.70
2019-04-03T15:35:01.694Z,12.10
2019-04-03T15:37:31.798Z,12.40
2019-04-03T15:40:05.759Z,12.60
2019-04-03T15:42:38.906Z,12.60
2019-04-03T15:45:08.921Z,12.50
2019-04-03T15:47:44.794Z,12.30
2019-04-03T15:50:12.923Z,12.10
2019-04-03T15:52:44.319Z,11.90
2019-04-03T15:55:14.933Z,11.70
2019-04-03T15:57:44.952Z,11.60
2019-04-03T16:00:16.206Z,11.50
2019-04-03T16:02:47.332Z,11.40
2019-04-03T16:05:17.885Z,11.30
2019-04-03T16:07:48.297Z,11.20
2019-04-03T16:10:21.764Z,11.10
2019-04-03T16:12:51.009Z,11.00
2019-04-03T16:15:22.677Z,10.90
2019-04-03T16:17:53.594Z,10.80
2019-04-03T16:20:25.252Z,10.80
2019-04-03T16:22:55.283Z,10.70
2019-04-03T16:25:25.579Z,10.60
2019-04-03T16:27:56.617Z,10.50
2019-04-03T16:30:26.752Z,10.40
2019-04-03T16:32:59.643Z,10.30
2019-04-03T16:35:28.896Z,10.10
2019-04-03T16:37:59.238Z,10.00
2019-04-03T16:40:31.279Z,9.90
2019-04-03T16:43:01.490Z,9.80
2019-04-03T16:45:31.528Z,9.60
2019-04-03T16:48:02.098Z,9.60
2019-04-03T16:50:32.933Z,9.50
2019-04-03T16:53:03.191Z,9.40
2019-04-03T16:55:33.282Z,9.30
2019-04-03T16:58:03.500Z,9.20
2019-04-03T17:00:33.927Z,9.10
2019-04-03T17:03:04.097Z,9.10
2019-04-03T17:05:35.815Z,9.00
2019-04-03T17:08:06.482Z,8.80
2019-04-03T17:10:40.692Z,8.70
2019-04-03T17:13:10.565Z,8.50
2019-04-03T17:15:40.743Z,8.30
2019-04-03T17:18:10.946Z,8.20
2019-04-03T17:20:41.701Z,8.10
2019-04-03T17:23:13.024Z,8.00
2019-04-03T17:25:47.644Z,7.90
2019-04-03T17:28:15.419Z,7.80
2019-04-03T17:30:45.874Z,7.80
2019-04-03T17:33:16.078Z,7.70
2019-04-03T17:35:48.173Z,7.70
2019-04-03T17:38:17.775Z,7.60
2019-04-03T17:40:47.717Z,7.60
2019-04-03T17:43:21.619Z,7.50
2019-04-03T17:45:51.932Z,7.50
2019-04-03T17:48:22.848Z,7.40
2019-04-03T17:50:53.986Z,7.30
2019-04-03T17:53:25.719Z,7.20
2019-04-03T17:55:55.978Z,7.20
2019-04-03T17:58:26.021Z,7.20
2019-04-03T18:00:55.975Z,7.20
2019-04-03T18:03:26.037Z,7.20
2019-04-03T18:05:56.980Z,7.10
2019-04-03T18:08:27.638Z,7.10
2019-04-03T18:10:57.672Z,7.00
2019-04-03T18:13:27.648Z,7.00
2019-04-03T18:15:58.876Z,6.90
2019-04-03T18:18:29.489Z,6.80
2019-04-03T18:21:00.490Z,6.70
2019-04-03T18:23:30.410Z,6.70
2019-04-03T18:26:00.684Z,6.70
2019-04-03T18:28:30.904Z,6.60
2019-04-03T18:31:00.929Z,6.60
2019-04-03T18:33:31.285Z,6.60
2019-04-03T18:36:01.258Z,6.60
2019-04-03T18:38:31.357Z,6.50
2019-04-03T18:41:04.011Z,6.50
2019-04-03T18:43:33.353Z,6.50
2019-04-03T18:46:03.270Z,6.50
2019-04-03T18:48:33.243Z,6.50
2019-04-03T18:51:05.491Z,6.50
2019-04-03T18:53:35.220Z,6.50
2019-04-03T18:56:05.704Z,6.50
2019-04-03T18:58:35.776Z,6.50
2019-04-03T19:01:05.973Z,6.50
2019-04-03T19:03:36.372Z,6.50
2019-04-03T19:06:09.098Z,6.50
2019-04-03T19:08:39.018Z,6.40
2019-04-03T19:11:09.675Z,6.40
2019-04-03T19:13:40.403Z,6.40
2019-04-03T19:16:10.538Z,6.40
2019-04-03T19:18:40.888Z,6.40
2019-04-03T19:21:23.750Z,6.30
2019-04-03T19:23:49.642Z,6.30
2019-04-03T19:26:14.731Z,6.20
2019-04-03T19:28:45.066Z,6.20
2019-04-03T19:31:15.307Z,6.20
2019-04-03T19:33:48.749Z,6.10
2019-04-03T19:36:20.407Z,6.10
2019-04-03T19:38:53.309Z,6.10
2019-04-03T19:41:22.326Z,6.10
2019-04-03T19:43:52.455Z,6.00
2019-04-03T19:46:22.836Z,6.00
2019-04-03T19:48:54.867Z,6.00
2019-04-03T19:51:25.094Z,6.00
2019-04-03T19:53:59.440Z,5.90
2019-04-03T19:56:26.959Z,5.80
2019-04-03T19:58:59.353Z,5.90
2019-04-03T20:01:29.328Z,5.90
2019-04-03T20:03:59.456Z,5.80
2019-04-03T20:06:29.443Z,5.80
2019-04-03T20:09:00.939Z,5.80
2019-04-03T20:11:31.429Z,5.80
2019-04-03T20:14:01.759Z,5.80
2019-04-03T20:16:31.745Z,5.80
2019-04-03T20:19:02.653Z,5.80
2019-04-03T20:21:34.032Z,5.80
2019-04-03T20:24:04.523Z,5.80
2019-04-03T20:26:34.879Z,5.90
2019-04-03T20:29:05.106Z,5.90
2019-04-03T20:31:35.697Z,5.90
2019-04-03T20:34:06.792Z,5.90
2019-04-03T20:36:37.180Z,5.90
2019-04-03T20:39:09.017Z,5.90
2019-04-03T20:41:39.198Z,5.90
2019-04-03T20:44:09.735Z,5.90
2019-04-03T20:46:39.801Z,5.90
2019-04-03T20:49:09.747Z,5.90
2019-04-03T20:51:40.380Z,5.90
2019-04-03T20:54:11.833Z,5.90
2019-04-03T20:56:42.165Z,5.90
2019-04-03T20:59:12.285Z,5.80
2019-04-03T21:01:42.379Z,5.80
2019-04-03T21:04:12.970Z,5.80
2019-04-03T21:06:44.419Z,5.70
2019-04-03T21:09:14.454Z,5.70
2019-04-03T21:11:45.298Z,5.70
2019-04-03T21:14:15.427Z,5.70
2019-04-03T21:16:47.676Z,5.70
2019-04-03T21:19:17.353Z,5.70
2019-04-03T21:21:47.697Z,5.60
2019-04-03T21:24:18.307Z,5.60
2019-04-03T21:26:48.304Z,5.60
2019-04-03T21:29:18.330Z,5.60
2019-04-03T21:31:48.418Z,5.60
2019-04-03T21:34:18.364Z,5.60
2019-04-03T21:36:48.464Z,5.50
2019-04-03T21:39:18.408Z,5.50
2019-04-03T21:41:48.318Z,5.50
2019-04-03T21:44:18.473Z,5.50
2019-04-03T21:46:49.425Z,5.50
2019-04-03T21:49:19.693Z,5.50
2019-04-03T21:51:49.919Z,5.50
2019-04-03T21:54:21.565Z,5.50
2019-04-03T21:56:52.003Z,5.50
2019-04-03T21:59:22.699Z,5.50
2019-04-03T22:01:53.239Z,5.50
2019-04-03T22:04:23.471Z,5.50
2019-04-03T22:06:53.363Z,5.60
2019-04-03T22:09:23.272Z,5.50
2019-04-03T22:11:53.267Z,5.50
2019-04-03T22:14:23.190Z,5.50
2019-04-03T22:16:55.227Z,5.60
2019-04-03T22:19:27.430Z,5.60
2019-04-03T22:21:56.920Z,5.60
2019-04-03T22:24:26.937Z,5.60
2019-04-03T22:26:57.414Z,5.70
2019-04-03T22:29:27.400Z,5.60
2019-04-03T22:31:57.496Z,5.60
2019-04-03T22:34:27.975Z,5.70
2019-04-03T22:36:59.769Z,5.70
2019-04-03T22:39:29.821Z,5.70
2019-04-03T22:42:01.911Z,5.70
2019-04-03T22:44:31.838Z,5.60
2019-04-03T22:47:01.807Z,5.60
2019-04-03T22:49:33.961Z,5.50
2019-04-03T22:52:04.018Z,5.50
2019-04-03T22:54:33.907Z,5.50
2019-04-03T22:57:04.208Z,5.50
2019-04-03T22:59:34.571Z,5.50
2019-04-03T23:02:04.651Z,5.50
2019-04-03T23:04:36.529Z,5.50
2019-04-03T23:07:06.444Z,5.50
2019-04-03T23:09:38.119Z,5.40
2019-04-03T23:12:08.159Z,5.50
2019-04-03T23:14:38.848Z,5.50
2019-04-03T23:17:09.164Z,5.40
2019-04-03T23:19:39.134Z,5.40
2019-04-03T23:22:09.261Z,5.40
2019-04-03T23:24:39.329Z,5.40
2019-04-03T23:27:09.463Z,5.50
2019-04-03T23:29:39.475Z,5.50
2019-04-03T23:32:09.726Z,5.50
2019-04-03T23:34:39.656Z,5.50
2019-04-03T23:37:09.681Z,5.50
2019-04-03T23:39:40.038Z,5.50
2019-04-03T23:42:09.913Z,5.50
2019-04-03T23:44:42.114Z,5.50
2019-04-03T23:47:12.912Z,5.50
2019-04-03T23:49:42.895Z,5.50
2019-04-03T23:52:13.503Z,5.50
2019-04-03T23:54:43.479Z,5.40
2019-04-03T23:57:13.757Z,5.50
2019-04-03T23:59:44.438Z,5.50
